Time,TemperatureF,DewpointF,PressureIn,WindDirection,WindDirectionDegrees,WindSpeedMPH,WindSpeedGustMPH,Humidity,HourlyPrecipIn,Conditions,Clouds,dailyrainin,SoftwareType,DateUTC
2013-11-12 00:00:00,22.2,18.1,30.58,North,351,7.0,10.0,84,0.00,,,0.00,Wunderground v.1.15,2013-11-12 06:00:00,
2013-11-12 00:02:00,22.2,18.1,30.58,NW,315,7.0,10.0,84,0.00,,,0.00,Wunderground v.1.15,2013-11-12 06:02:00,
2013-11-12 00:04:00,22.2,18.1,30.58,NW,321,6.0,10.0,84,0.00,,,0.00,Wunderground v.1.15,2013-11-12 06:04:00,
2013-11-12 00:08:00,22.2,18.1,30.59,North,352,6.0,10.0,84,0.00,,,0.00,Wunderground v.1.15,2013-11-12 06:08:00,
2013-11-12 00:10:00,22.2,18.1,30.59,North,1,6.0,6.0,84,0.00,,,0.00,Wunderground v.1.15,2013-11-12 06:10:00,
2013-11-12 00:12:00,22.1,18.0,30.59,NW,324,6.0,8.0,84,0.00,,,0.00,Wunderground v.1.15,2013-11-12 06:12:00,
2013-11-12 00:14:00,22.1,18.0,30.59,NW,322,6.0,8.0,84,0.00,,,0.00,Wunderground v.1.15,2013-11-12 06:14:00,
2013-11-12 00:20:00,22.0,17.9,30.59,NNW,346,6.0,8.0,84,0.00,,,0.00,Wunderground v.1.15,2013-11-12 06:20:00,
2013-11-12 00:22:00,22.0,17.9,30.59,NNW,342,6.0,8.0,84,0.00,,,0.00,Wunderground v.1.15,2013-11-12 06:22:00,
2013-11-12 00:24:00,22.0,17.9,30.59,NW,316,6.0,8.0,84,0.00,,,0.00,Wunderground v.1.15,2013-11-12 06:24:00,
2013-11-12 00:28:00,21.9,17.8,30.59,North,349,6.0,8.0,84,0.00,,,0.00,Wunderground v.1.15,2013-11-12 06:28:00,
2013-11-12 00:30:00,21.8,17.7,30.59,NNW,335,6.0,8.0,84,0.00,,,0.00,Wunderground v.1.15,2013-11-12 06:30:00,
2013-11-12 00:34:00,21.7,17.6,30.59,NNW,346,5.0,8.0,84,0.00,,,0.00,Wunderground v.1.15,2013-11-12 06:34:00,
2013-11-12 00:36:00,21.7,17.6,30.59,North,359,5.0,8.0,84,0.00,,,0.00,Wunderground v.1.15,2013-11-12 06:36:00,
2013-11-12 00:40:00,21.5,17.4,30.59,NNW,338,5.0,5.0,84,0.00,,,0.00,Wunderground v.1.15,2013-11-12 06:40:00,
2013-11-12 00:42:00,21.4,17.6,30.59,NNW,330,5.0,8.0,85,0.00,,,0.00,Wunderground v.1.15,2013-11-12 06:42:00,
2013-11-12 00:44:00,21.3,17.5,30.59,NNW,335,4.0,8.0,85,0.00,,,0.00,Wunderground v.1.15,2013-11-12 06:44:00,
2013-11-12 00:48:00,21.3,17.5,30.59,North,1,4.0,8.0,85,0.00,,,0.00,Wunderground v.1.15,2013-11-12 06:48:00,
2013-11-12 00:52:00,21.4,17.6,30.60,NNW,342,4.0,8.0,85,0.00,,,0.00,Wunderground v.1.15,2013-11-12 06:52:00,
2013-11-12 00:54:00,21.4,17.6,30.60,NNW,335,4.0,8.0,85,0.00,,,0.00,Wunderground v.1.15,2013-11-12 06:54:00,
2013-11-12 00:56:00,21.3,17.5,30.60,NW,311,5.0,8.0,85,0.00,,,0.00,Wunderground v.1.15,2013-11-12 06:56:00,
2013-11-12 01:00:00,21.2,17.4,30.60,NNW,338,4.0,8.0,85,0.00,,,0.00,Wunderground v.1.15,2013-11-12 07:00:00,
2013-11-12 01:02:00,21.2,17.4,30.60,NNW,344,4.0,8.0,85,0.00,,,0.00,Wunderground v.1.15,2013-11-12 07:02:00,
2013-11-12 01:04:00,21.2,17.4,30.60,NNW,340,4.0,8.0,85,0.00,,,0.00,Wunderground v.1.15,2013-11-12 07:04:00,
2013-11-12 01:06:00,21.2,17.4,30.60,NW,316,4.0,8.0,85,0.00,,,0.00,Wunderground v.1.15,2013-11-12 07:06:00,
2013-11-12 01:08:00,21.1,17.3,30.60,NNW,329,5.0,8.0,85,0.00,,,0.00,Wunderground v.1.15,2013-11-12 07:08:00,
2013-11-12 01:10:00,21.1,17.3,30.60,NNW,337,5.0,5.0,85,0.00,,,0.00,Wunderground v.1.15,2013-11-12 07:10:00,
2013-11-12 01:12:00,21.1,17.3,30.60,North,5,5.0,6.0,85,0.00,,,0.00,Wunderground v.1.15,2013-11-12 07:12:00,
2013-11-12 01:14:00,21.1,17.3,30.60,NNW,338,5.0,8.0,85,0.00,,,0.00,Wunderground v.1.15,2013-11-12 07:14:00,
2013-11-12 01:18:00,21.1,17.3,30.60,NW,317,5.0,8.0,85,0.00,,,0.00,Wunderground v.1.15,2013-11-12 07:18:00,
2013-11-12 01:20:00,21.1,17.3,30.60,NNW,332,5.0,8.0,85,0.00,,,0.00,Wunderground v.1.15,2013-11-12 07:20:00,
2013-11-12 01:26:00,20.9,17.1,30.60,NW,305,5.0,8.0,85,0.00,,,0.00,Wunderground v.1.15,2013-11-12 07:26:00,
2013-11-12 01:28:00,20.8,17.0,30.60,North,351,5.0,8.0,85,0.00,,,0.00,Wunderground v.1.15,2013-11-12 07:28:00,
2013-11-12 01:32:00,20.8,17.0,30.60,NW,320,5.0,8.0,85,0.00,,,0.00,Wunderground v.1.15,2013-11-12 07:32:00,
2013-11-12 01:34:00,20.8,17.0,30.60,NW,315,5.0,8.0,85,0.00,,,0.00,Wunderground v.1.15,2013-11-12 07:34:00,
2013-11-12 01:36:00,20.8,17.0,30.60,NNW,330,6.0,8.0,85,0.00,,,0.00,Wunderground v.1.15,2013-11-12 07:36:00,
2013-11-12 01:40:00,20.8,17.0,30.60,NW,311,6.0,6.0,85,0.00,,,0.00,Wunderground v.1.15,2013-11-12 07:40:00,
2013-11-12 01:44:00,20.8,17.0,30.60,NNW,337,5.0,8.0,85,0.00,,,0.00,Wunderground v.1.15,2013-11-12 07:44:00,
2013-11-12 01:46:00,20.8,17.0,30.60,NNW,327,5.0,8.0,85,0.00,,,0.00,Wunderground v.1.15,2013-11-12 07:46:00,
2013-11-12 01:48:00,20.7,16.9,30.60,NW,325,5.0,8.0,85,0.00,,,0.00,Wunderground v.1.15,2013-11-12 07:48:00,
2013-11-12 01:50:00,20.7,16.9,30.61,NNW,328,5.0,8.0,85,0.00,,,0.00,Wunderground v.1.15,2013-11-12 07:50:00,
2013-11-12 01:52:00,20.7,16.9,30.61,NNW,340,5.0,8.0,85,0.00,,,0.00,Wunderground v.1.15,2013-11-12 07:52:00,
2013-11-12 01:54:00,20.7,16.9,30.61,NNW,333,5.0,8.0,85,0.00,,,0.00,Wunderground v.1.15,2013-11-12 07:54:00,
2013-11-12 01:56:00,20.7,16.9,30.61,NW,326,6.0,8.0,85,0.00,,,0.00,Wunderground v.1.15,2013-11-12 07:56:00,
2013-11-12 01:58:00,20.7,16.9,30.61,NW,326,6.0,8.0,85,0.00,,,0.00,Wunderground v.1.15,2013-11-12 07:58:00,
2013-11-12 02:00:00,20.7,16.9,30.61,NNW,328,6.0,6.0,85,0.00,,,0.00,Wunderground v.1.15,2013-11-12 08:00:00,
2013-11-12 02:04:00,20.8,17.0,30.61,NNW,335,6.0,8.0,85,0.00,,,0.00,Wunderground v.1.15,2013-11-12 08:04:00,
2013-11-12 02:06:00,20.7,16.6,30.61,North,351,6.0,8.0,84,0.00,,,0.00,Wunderground v.1.15,2013-11-12 08:06:00,
2013-11-12 02:08:00,20.7,16.6,30.61,NNW,342,6.0,8.0,84,0.00,,,0.00,Wunderground v.1.15,2013-11-12 08:08:00,
2013-11-12 02:10:00,20.7,16.6,30.61,NW,324,6.0,8.0,84,0.00,,,0.00,Wunderground v.1.15,2013-11-12 08:10:00,
2013-11-12 02:14:00,20.7,16.6,30.61,NW,318,6.0,8.0,84,0.00,,,0.00,Wunderground v.1.15,2013-11-12 08:14:00,
2013-11-12 02:16:00,20.7,16.6,30.61,NW,324,6.0,8.0,84,0.00,,,0.00,Wunderground v.1.15,2013-11-12 08:16:00,
2013-11-12 02:18:00,20.7,16.6,30.61,NNW,341,6.0,8.0,84,0.00,,,0.00,Wunderground v.1.15,2013-11-12 08:18:00,
2013-11-12 02:22:00,20.8,16.7,30.61,NW,309,7.0,8.0,84,0.00,,,0.00,Wunderground v.1.15,2013-11-12 08:22:00,
2013-11-12 02:24:00,20.8,16.7,30.62,North,352,7.0,8.0,84,0.00,,,0.00,Wunderground v.1.15,2013-11-12 08:24:00,
2013-11-12 02:26:00,20.9,16.8,30.62,NNW,330,7.0,8.0,84,0.00,,,0.00,Wunderground v.1.15,2013-11-12 08:26:00,
2013-11-12 02:28:00,20.9,16.8,30.62,NNW,333,8.0,11.0,84,0.00,,,0.00,Wunderground v.1.15,2013-11-12 08:28:00,
2013-11-12 02:32:00,21.1,16.7,30.62,NNW,338,9.0,9.0,83,0.00,,,0.00,Wunderground v.1.15,2013-11-12 08:32:00,
2013-11-12 02:34:00,21.1,16.7,30.62,NNW,338,9.0,9.0,83,0.00,,,0.00,Wunderground v.1.15,2013-11-12 08:34:00,
2013-11-12 02:36:00,21.1,16.7,30.62,NW,323,9.0,9.0,83,0.00,,,0.00,Wunderground v.1.15,2013-11-12 08:36:00,
2013-11-12 02:42:00,21.2,16.8,30.63,NW,321,9.0,9.0,83,0.00,,,0.00,Wunderground v.1.15,2013-11-12 08:42:00,
2013-11-12 02:44:00,21.2,16.8,30.63,NNW,348,9.0,9.0,83,0.00,,,0.00,Wunderground v.1.15,2013-11-12 08:44:00,
2013-11-12 02:48:00,21.1,16.7,30.63,North,351,9.0,9.0,83,0.00,,,0.00,Wunderground v.1.15,2013-11-12 08:48:00,
2013-11-12 02:54:00,21.0,16.6,30.63,NNW,332,9.0,9.0,83,0.00,,,0.00,Wunderground v.1.15,2013-11-12 08:54:00,
2013-11-12 02:56:00,20.9,16.5,30.63,NNW,342,8.0,9.0,83,0.00,,,0.00,Wunderground v.1.15,2013-11-12 08:56:00,
2013-11-12 02:58:00,20.9,16.5,30.63,NW,322,8.0,9.0,83,0.00,,,0.00,Wunderground v.1.15,2013-11-12 08:58:00,
2013-11-12 03:00:00,20.8,16.5,30.63,NNW,337,8.0,8.0,83,0.00,,,0.00,Wunderground v.1.15,2013-11-12 09:00:00,
2013-11-12 03:02:00,20.8,16.5,30.64,NW,326,7.0,8.0,83,0.00,,,0.00,Wunderground v.1.15,2013-11-12 09:02:00,
2013-11-12 03:04:00,20.7,16.4,30.64,North,356,7.0,8.0,83,0.00,,,0.00,Wunderground v.1.15,2013-11-12 09:04:00,
2013-11-12 03:06:00,20.7,16.4,30.64,NNW,334,8.0,9.0,83,0.00,,,0.00,Wunderground v.1.15,2013-11-12 09:06:00,
2013-11-12 03:08:00,20.7,16.4,30.64,NNW,330,8.0,9.0,83,0.00,,,0.00,Wunderground v.1.15,2013-11-12 09:08:00,
2013-11-12 03:10:00,20.7,16.4,30.64,NNW,335,8.0,8.0,83,0.00,,,0.00,Wunderground v.1.15,2013-11-12 09:10:00,
2013-11-12 03:12:00,20.6,16.3,30.64,NNW,327,7.0,8.0,83,0.00,,,0.00,Wunderground v.1.15,2013-11-12 09:12:00,
2013-11-12 03:16:00,20.5,16.2,30.64,NNW,330,7.0,8.0,83,0.00,,,0.00,Wunderground v.1.15,2013-11-12 09:16:00,
2013-11-12 03:18:00,20.4,16.1,30.64,NNW,342,6.0,8.0,83,0.00,,,0.00,Wunderground v.1.15,2013-11-12 09:18:00,
2013-11-12 03:20:00,20.4,16.1,30.64,NW,311,6.0,8.0,83,0.00,,,0.00,Wunderground v.1.15,2013-11-12 09:20:00,
2013-11-12 03:26:00,20.5,16.2,30.65,NNW,330,6.0,10.0,83,0.00,,,0.00,Wunderground v.1.15,2013-11-12 09:26:00,
2013-11-12 03:28:00,20.6,16.3,30.65,NNW,345,7.0,10.0,83,0.00,,,0.00,Wunderground v.1.15,2013-11-12 09:28:00,
2013-11-12 03:30:00,20.6,16.3,30.65,NNW,340,7.0,8.0,83,0.00,,,0.00,Wunderground v.1.15,2013-11-12 09:30:00,
2013-11-12 03:32:00,20.6,16.3,30.65,North,357,8.0,8.0,83,0.00,,,0.00,Wunderground v.1.15,2013-11-12 09:32:00,
2013-11-12 03:40:00,20.5,16.2,30.65,NNW,348,7.0,8.0,83,0.00,,,0.00,Wunderground v.1.15,2013-11-12 09:40:00,
2013-11-12 03:42:00,20.4,16.1,30.65,NNW,345,6.0,9.0,83,0.00,,,0.00,Wunderground v.1.15,2013-11-12 09:42:00,
2013-11-12 03:48:00,20.5,16.2,30.65,NNW,348,6.0,9.0,83,0.00,,,0.00,Wunderground v.1.15,2013-11-12 09:48:00,
2013-11-12 03:52:00,20.4,16.1,30.66,NNW,344,6.0,8.0,83,0.00,,,0.00,Wunderground v.1.15,2013-11-12 09:52:00,
2013-11-12 03:54:00,20.2,15.9,30.66,NNW,329,5.0,8.0,83,0.00,,,0.00,Wunderground v.1.15,2013-11-12 09:54:00,
2013-11-12 03:58:00,20.1,15.8,30.66,NW,318,5.0,8.0,83,0.00,,,0.00,Wunderground v.1.15,2013-11-12 09:58:00,
2013-11-12 04:00:00,20.1,15.8,30.66,NNW,345,5.0,8.0,83,0.00,,,0.00,Wunderground v.1.15,2013-11-12 10:00:00,
2013-11-12 04:02:00,20.1,15.8,30.66,NW,323,5.0,8.0,83,0.00,,,0.00,Wunderground v.1.15,2013-11-12 10:02:00,
2013-11-12 04:06:00,20.0,15.9,30.66,NNW,331,5.0,8.0,84,0.00,,,0.00,Wunderground v.1.15,2013-11-12 10:06:00,
2013-11-12 04:08:00,20.0,15.9,30.66,NNW,340,4.0,8.0,84,0.00,,,0.00,Wunderground v.1.15,2013-11-12 10:08:00,
2013-11-12 04:12:00,20.0,15.9,30.66,NW,311,4.0,8.0,84,0.00,,,0.00,Wunderground v.1.15,2013-11-12 10:12:00,
2013-11-12 04:16:00,19.8,15.7,30.67,NNW,329,4.0,8.0,84,0.00,,,0.00,Wunderground v.1.15,2013-11-12 10:16:00,
2013-11-12 04:18:00,19.8,15.7,30.67,NW,304,4.0,8.0,84,0.00,,,0.00,Wunderground v.1.15,2013-11-12 10:18:00,
2013-11-12 04:20:00,19.7,15.6,30.67,NNW,338,4.0,4.0,84,0.00,,,0.00,Wunderground v.1.15,2013-11-12 10:20:00,
2013-11-12 04:22:00,19.7,15.6,30.67,NNW,340,4.0,8.0,84,0.00,,,0.00,Wunderground v.1.15,2013-11-12 10:22:00,
2013-11-12 04:24:00,19.6,15.6,30.67,NNW,335,4.0,8.0,84,0.00,,,0.00,Wunderground v.1.15,2013-11-12 10:24:00,
2013-11-12 04:28:00,19.5,15.5,30.67,North,351,4.0,8.0,84,0.00,,,0.00,Wunderground v.1.15,2013-11-12 10:28:00,
2013-11-12 04:30:00,19.5,15.5,30.67,NW,315,4.0,4.0,84,0.00,,,0.00,Wunderground v.1.15,2013-11-12 10:30:00,
2013-11-12 04:32:00,19.4,15.6,30.67,NNW,327,4.0,5.0,85,0.00,,,0.00,Wunderground v.1.15,2013-11-12 10:32:00,
2013-11-12 04:34:00,19.4,15.6,30.67,NW,320,4.0,8.0,85,0.00,,,0.00,Wunderground v.1.15,2013-11-12 10:34:00,
2013-11-12 04:36:00,19.3,15.5,30.68,NW,315,4.0,8.0,85,0.00,,,0.00,Wunderground v.1.15,2013-11-12 10:36:00,
2013-11-12 04:38:00,19.2,15.4,30.68,NNW,329,4.0,8.0,85,0.00,,,0.00,Wunderground v.1.15,2013-11-12 10:38:00,
2013-11-12 04:42:00,19.1,15.3,30.68,NW,319,4.0,8.0,85,0.00,,,0.00,Wunderground v.1.15,2013-11-12 10:42:00,
2013-11-12 04:44:00,19.1,15.3,30.68,NNW,336,4.0,8.0,85,0.00,,,0.00,Wunderground v.1.15,2013-11-12 10:44:00,
2013-11-12 04:46:00,19.0,15.2,30.68,North,353,4.0,8.0,85,0.00,,,0.00,Wunderground v.1.15,2013-11-12 10:46:00,
2013-11-12 04:48:00,19.0,15.2,30.68,NNW,338,4.0,8.0,85,0.00,,,0.00,Wunderground v.1.15,2013-11-12 10:48:00,
2013-11-12 04:50:00,19.1,15.3,30.68,NNW,343,5.0,5.0,85,0.00,,,0.00,Wunderground v.1.15,2013-11-12 10:50:00,
2013-11-12 04:52:00,19.1,15.3,30.68,NW,324,5.0,8.0,85,0.00,,,0.00,Wunderground v.1.15,2013-11-12 10:52:00,
2013-11-12 04:54:00,19.1,15.3,30.68,NNW,339,5.0,8.0,85,0.00,,,0.00,Wunderground v.1.15,2013-11-12 10:54:00,
2013-11-12 05:00:00,19.2,15.4,30.69,NNW,338,5.0,8.0,85,0.00,,,0.00,Wunderground v.1.15,2013-11-12 11:00:00,
2013-11-12 05:04:00,19.3,15.5,30.69,North,360,6.0,8.0,85,0.00,,,0.00,Wunderground v.1.15,2013-11-12 11:04:00,
2013-11-12 05:06:00,19.3,15.5,30.69,North,8,6.0,8.0,85,0.00,,,0.00,Wunderground v.1.15,2013-11-12 11:06:00,
2013-11-12 05:10:00,19.6,15.6,30.69,NNW,344,7.0,8.0,84,0.00,,,0.00,Wunderground v.1.15,2013-11-12 11:10:00,
2013-11-12 05:12:00,19.7,15.6,30.69,North,353,8.0,9.0,84,0.00,,,0.00,Wunderground v.1.15,2013-11-12 11:12:00,
2013-11-12 05:16:00,19.7,15.6,30.70,NW,314,8.0,9.0,84,0.00,,,0.00,Wunderground v.1.15,2013-11-12 11:16:00,
2013-11-12 05:20:00,19.7,15.6,30.70,NNW,342,8.0,13.0,84,0.00,,,0.00,Wunderground v.1.15,2013-11-12 11:20:00,
2013-11-12 05:22:00,19.7,15.6,30.70,North,357,8.0,13.0,84,0.00,,,0.00,Wunderground v.1.15,2013-11-12 11:22:00,
2013-11-12 05:24:00,19.7,15.6,30.70,NNW,329,8.0,13.0,84,0.00,,,0.00,Wunderground v.1.15,2013-11-12 11:24:00,
2013-11-12 05:26:00,19.7,15.6,30.70,NNE,12,8.0,13.0,84,0.00,,,0.00,Wunderground v.1.15,2013-11-12 11:26:00,
2013-11-12 05:29:00,19.7,15.6,30.70,NNW,347,9.0,13.0,84,0.00,,,0.00,Wunderground v.1.15,2013-11-12 11:29:00,
2013-11-12 05:32:00,19.7,15.6,30.70,NNW,335,8.0,8.0,84,0.00,,,0.00,Wunderground v.1.15,2013-11-12 11:32:00,
2013-11-12 05:34:00,19.7,15.4,30.71,NNW,338,8.0,8.0,83,0.00,,,0.00,Wunderground v.1.15,2013-11-12 11:34:00,
2013-11-12 05:38:00,19.8,15.5,30.70,NNW,330,9.0,12.0,83,0.00,,,0.00,Wunderground v.1.15,2013-11-12 11:38:00,
2013-11-12 05:40:00,19.8,15.5,30.70,NNW,335,8.0,10.0,83,0.00,,,0.00,Wunderground v.1.15,2013-11-12 11:40:00,
2013-11-12 05:42:00,19.8,15.5,30.70,North,349,8.0,10.0,83,0.00,,,0.00,Wunderground v.1.15,2013-11-12 11:42:00,
2013-11-12 05:46:00,19.9,15.6,30.71,NNW,347,9.0,11.0,83,0.00,,,0.00,Wunderground v.1.15,2013-11-12 11:46:00,
2013-11-12 05:48:00,19.8,15.5,30.71,NNW,336,9.0,11.0,83,0.00,,,0.00,Wunderground v.1.15,2013-11-12 11:48:00,
2013-11-12 05:54:00,19.6,15.3,30.71,NNW,330,9.0,9.0,83,0.00,,,0.00,Wunderground v.1.15,2013-11-12 11:54:00,
2013-11-12 05:56:00,19.6,15.3,30.71,NNW,336,8.0,9.0,83,0.00,,,0.00,Wunderground v.1.15,2013-11-12 11:56:00,
2013-11-12 05:58:00,19.5,15.5,30.71,NE,37,8.0,9.0,84,0.00,,,0.00,Wunderground v.1.15,2013-11-12 11:58:00,
2013-11-12 06:00:00,19.5,15.5,30.71,NNW,328,8.0,8.0,84,0.00,,,0.00,Wunderground v.1.15,2013-11-12 12:00:00,
2013-11-12 06:04:00,19.4,15.4,30.71,NW,315,8.0,8.0,84,0.00,,,0.00,Wunderground v.1.15,2013-11-12 12:04:00,
2013-11-12 06:06:00,19.4,15.4,30.71,NNW,327,8.0,8.0,84,0.00,,,0.00,Wunderground v.1.15,2013-11-12 12:06:00,
2013-11-12 06:08:00,19.4,15.4,30.71,NNW,340,7.0,8.0,84,0.00,,,0.00,Wunderground v.1.15,2013-11-12 12:08:00,
2013-11-12 06:10:00,19.3,15.3,30.71,NNW,340,7.0,8.0,84,0.00,,,0.00,Wunderground v.1.15,2013-11-12 12:10:00,
2013-11-12 06:12:00,19.3,15.3,30.71,NNW,348,7.0,8.0,84,0.00,,,0.00,Wunderground v.1.15,2013-11-12 12:12:00,
2013-11-12 06:14:00,19.3,15.3,30.71,NNW,330,7.0,8.0,84,0.00,,,0.00,Wunderground v.1.15,2013-11-12 12:14:00,
2013-11-12 06:16:00,19.2,15.2,30.71,NW,321,6.0,8.0,84,0.00,,,0.00,Wunderground v.1.15,2013-11-12 12:16:00,
2013-11-12 06:18:00,19.1,15.1,30.71,NW,324,6.0,8.0,84,0.00,,,0.00,Wunderground v.1.15,2013-11-12 12:18:00,
2013-11-12 06:22:00,19.0,15.0,30.71,NNW,328,6.0,8.0,84,0.00,,,0.00,Wunderground v.1.15,2013-11-12 12:22:00,
2013-11-12 06:24:00,18.9,14.9,30.72,NNW,338,6.0,8.0,84,0.00,,,0.00,Wunderground v.1.15,2013-11-12 12:24:00,
2013-11-12 06:26:00,18.9,14.9,30.71,NW,322,6.0,8.0,84,0.00,,,0.00,Wunderground v.1.15,2013-11-12 12:26:00,
2013-11-12 06:28:00,18.8,14.8,30.72,NNW,346,6.0,8.0,84,0.00,,,0.00,Wunderground v.1.15,2013-11-12 12:28:00,
2013-11-12 06:32:00,18.8,15.0,30.72,NW,321,6.0,8.0,85,0.00,,,0.00,Wunderground v.1.15,2013-11-12 12:32:00,
2013-11-12 06:36:00,18.7,14.9,30.72,NW,325,6.0,8.0,85,0.00,,,0.00,Wunderground v.1.15,2013-11-12 12:36:00,
2013-11-12 06:38:00,18.7,14.9,30.72,NW,316,5.0,8.0,85,0.00,,,0.00,Wunderground v.1.15,2013-11-12 12:38:00,
2013-11-12 06:40:00,18.7,14.9,30.72,NNW,335,5.0,5.0,85,0.00,,,0.00,Wunderground v.1.15,2013-11-12 12:40:00,
2013-11-12 06:42:00,18.7,14.9,30.72,NNW,338,5.0,6.0,85,0.00,,,0.00,Wunderground v.1.15,2013-11-12 12:42:00,
2013-11-12 06:48:00,18.5,14.7,30.72,NNW,328,5.0,8.0,85,0.00,,,0.00,Wunderground v.1.15,2013-11-12 12:48:00,
2013-11-12 06:50:00,18.5,14.7,30.72,NNW,327,4.0,4.0,85,0.00,,,0.00,Wunderground v.1.15,2013-11-12 12:50:00,
2013-11-12 06:52:00,18.5,14.7,30.72,NW,320,4.0,5.0,85,0.00,,,0.00,Wunderground v.1.15,2013-11-12 12:52:00,
2013-11-12 06:58:00,18.6,14.8,30.73,NW,320,4.0,8.0,85,0.00,,,0.00,Wunderground v.1.15,2013-11-12 12:58:00,
2013-11-12 07:00:00,18.7,14.9,30.73,NW,323,4.0,8.0,85,0.00,,,0.00,Wunderground v.1.15,2013-11-12 13:00:00,
2013-11-12 07:04:00,18.8,15.0,30.73,NW,325,4.0,8.0,85,0.00,,,0.00,Wunderground v.1.15,2013-11-12 13:04:00,
2013-11-12 07:06:00,18.8,15.0,30.73,NW,313,4.0,8.0,85,0.00,,,0.00,Wunderground v.1.15,2013-11-12 13:06:00,
2013-11-12 07:08:00,18.9,15.1,30.73,NNW,329,4.0,8.0,85,0.00,,,0.00,Wunderground v.1.15,2013-11-12 13:08:00,
2013-11-12 07:10:00,19.0,15.2,30.73,NW,326,4.0,8.0,85,0.00,,,0.00,Wunderground v.1.15,2013-11-12 13:10:00,
2013-11-12 07:12:00,19.0,15.0,30.74,NNW,329,4.0,8.0,84,0.00,,,0.00,Wunderground v.1.15,2013-11-12 13:12:00,
2013-11-12 07:16:00,19.2,15.2,30.74,NNW,337,4.0,8.0,84,0.00,,,0.00,Wunderground v.1.15,2013-11-12 13:16:00,
2013-11-12 07:18:00,19.3,15.3,30.74,NW,316,4.0,8.0,84,0.00,,,0.00,Wunderground v.1.15,2013-11-12 13:18:00,
2013-11-12 07:20:00,19.4,15.4,30.74,NNW,344,5.0,8.0,84,0.00,,,0.00,Wunderground v.1.15,2013-11-12 13:20:00,
2013-11-12 07:22:00,19.5,15.5,30.74,NW,326,5.0,8.0,84,0.00,,,0.00,Wunderground v.1.15,2013-11-12 13:22:00,
2013-11-12 07:24:00,19.5,15.5,30.74,NNW,329,5.0,8.0,84,0.00,,,0.00,Wunderground v.1.15,2013-11-12 13:24:00,
2013-11-12 07:26:00,19.7,15.6,30.75,NNW,348,6.0,8.0,84,0.00,,,0.00,Wunderground v.1.15,2013-11-12 13:26:00,
2013-11-12 07:28:00,19.8,15.7,30.75,NNW,335,6.0,8.0,84,0.00,,,0.00,Wunderground v.1.15,2013-11-12 13:28:00,
2013-11-12 07:32:00,20.0,15.9,30.75,NNW,331,6.0,8.0,84,0.00,,,0.00,Wunderground v.1.15,2013-11-12 13:32:00,
2013-11-12 07:36:00,20.3,16.2,30.76,NW,325,6.0,8.0,84,0.00,,,0.00,Wunderground v.1.15,2013-11-12 13:36:00,
2013-11-12 07:38:00,20.4,16.1,30.76,North,349,7.0,9.0,83,0.00,,,0.00,Wunderground v.1.15,2013-11-12 13:38:00,
2013-11-12 07:40:00,20.5,16.2,30.76,NNW,346,7.0,8.0,83,0.00,,,0.00,Wunderground v.1.15,2013-11-12 13:40:00,
2013-11-12 07:46:00,20.9,16.5,30.76,NNW,344,7.0,8.0,83,0.00,,,0.00,Wunderground v.1.15,2013-11-12 13:46:00,
2013-11-12 07:50:00,21.0,16.1,30.76,NNW,347,7.0,7.0,81,0.00,,,0.00,Wunderground v.1.15,2013-11-12 13:50:00,
2013-11-12 07:52:00,21.1,16.5,30.76,NNW,338,7.0,9.0,82,0.00,,,0.00,Wunderground v.1.15,2013-11-12 13:52:00,
2013-11-12 07:54:00,21.1,16.2,30.76,NNW,336,8.0,9.0,81,0.00,,,0.00,Wunderground v.1.15,2013-11-12 13:54:00,
2013-11-12 07:58:00,21.3,16.4,30.76,NNW,347,8.0,10.0,81,0.00,,,0.00,Wunderground v.1.15,2013-11-12 13:58:00,
2013-11-12 08:02:00,21.5,16.9,30.76,NNW,336,8.0,8.0,82,0.00,,,0.00,Wunderground v.1.15,2013-11-12 14:02:00,
2013-11-12 08:04:00,21.6,16.7,30.76,North,357,8.0,10.0,81,0.00,,,0.00,Wunderground v.1.15,2013-11-12 14:04:00,
2013-11-12 08:08:00,21.8,16.6,30.76,North,351,8.0,10.0,80,0.00,,,0.00,Wunderground v.1.15,2013-11-12 14:08:00,
2013-11-12 08:10:00,21.9,17.0,30.76,NNE,23,8.0,8.0,81,0.00,,,0.00,Wunderground v.1.15,2013-11-12 14:10:00,
2013-11-12 08:16:00,22.2,17.0,30.76,NNE,17,8.0,8.0,80,0.00,,,0.00,Wunderground v.1.15,2013-11-12 14:16:00,
2013-11-12 08:18:00,22.3,17.4,30.76,NW,324,7.0,8.0,81,0.00,,,0.00,Wunderground v.1.15,2013-11-12 14:18:00,
2013-11-12 08:24:00,22.3,16.8,30.76,NNW,336,9.0,11.0,79,0.00,,,0.00,Wunderground v.1.15,2013-11-12 14:24:00,
2013-11-12 08:26:00,22.3,17.1,30.76,North,357,9.0,11.0,80,0.00,,,0.00,Wunderground v.1.15,2013-11-12 14:26:00,
2013-11-12 08:28:00,22.4,17.2,30.77,NW,307,10.0,11.0,80,0.00,,,0.00,Wunderground v.1.15,2013-11-12 14:28:00,
2013-11-12 08:32:00,22.5,17.3,30.76,North,358,10.0,10.0,80,0.00,,,0.00,Wunderground v.1.15,2013-11-12 14:32:00,
2013-11-12 08:34:00,22.7,17.5,30.76,WNW,302,9.0,10.0,80,0.00,,,0.00,Wunderground v.1.15,2013-11-12 14:34:00,
2013-11-12 08:36:00,22.7,17.5,30.76,NW,319,9.0,10.0,80,0.00,,,0.00,Wunderground v.1.15,2013-11-12 14:36:00,
2013-11-12 08:40:00,22.9,17.4,30.76,NNW,339,9.0,11.0,79,0.00,,,0.00,Wunderground v.1.15,2013-11-12 14:40:00,
2013-11-12 08:46:00,23.3,18.3,30.76,NW,325,8.0,11.0,81,0.00,,,0.00,Wunderground v.1.15,2013-11-12 14:46:00,
2013-11-12 08:48:00,23.4,18.1,30.76,North,5,8.0,11.0,80,0.00,,,0.00,Wunderground v.1.15,2013-11-12 14:48:00,
2013-11-12 08:52:00,23.3,17.7,30.76,North,353,9.0,11.0,79,0.00,,,0.00,Wunderground v.1.15,2013-11-12 14:52:00,
2013-11-12 08:54:00,23.4,18.1,30.76,NNE,15,9.0,11.0,80,0.00,,,0.00,Wunderground v.1.15,2013-11-12 14:54:00,
2013-11-12 08:58:00,23.6,18.3,30.76,North,357,9.0,11.0,80,0.00,,,0.00,Wunderground v.1.15,2013-11-12 14:58:00,
2013-11-12 09:00:00,23.8,18.2,30.76,North,6,9.0,10.0,79,0.00,,,0.00,Wunderground v.1.15,2013-11-12 15:00:00,
2013-11-12 09:04:00,24.0,18.7,30.76,NNW,338,8.0,10.0,80,0.00,,,0.00,Wunderground v.1.15,2013-11-12 15:04:00,
2013-11-12 09:06:00,24.0,18.4,30.76,NNW,346,8.0,10.0,79,0.00,,,0.00,Wunderground v.1.15,2013-11-12 15:06:00,
2013-11-12 09:12:00,24.3,19.0,30.77,NW,321,7.0,9.0,80,0.00,,,0.00,Wunderground v.1.15,2013-11-12 15:12:00,
2013-11-12 09:14:00,24.4,18.8,30.77,NW,326,7.0,9.0,79,0.00,,,0.00,Wunderground v.1.15,2013-11-12 15:14:00,
2013-11-12 09:18:00,24.5,18.9,30.77,NNW,330,7.0,9.0,79,0.00,,,0.00,Wunderground v.1.15,2013-11-12 15:18:00,
2013-11-12 09:20:00,24.5,18.6,30.77,NW,320,7.0,7.0,78,0.00,,,0.00,Wunderground v.1.15,2013-11-12 15:20:00,
2013-11-12 09:22:00,24.7,19.4,30.77,NNW,327,7.0,8.0,80,0.00,,,0.00,Wunderground v.1.15,2013-11-12 15:22:00,
2013-11-12 09:24:00,24.8,19.2,30.77,NW,306,7.0,8.0,79,0.00,,,0.00,Wunderground v.1.15,2013-11-12 15:24:00,
2013-11-12 09:26:00,24.9,19.6,30.77,NNW,330,7.0,8.0,80,0.00,,,0.00,Wunderground v.1.15,2013-11-12 15:26:00,
2013-11-12 09:28:00,25.0,19.7,30.77,NW,312,7.0,10.0,80,0.00,,,0.00,Wunderground v.1.15,2013-11-12 15:28:00,
2013-11-12 09:30:00,25.1,19.8,30.77,NW,313,6.0,9.0,80,0.00,,,0.00,Wunderground v.1.15,2013-11-12 15:30:00,
2013-11-12 09:32:00,25.1,19.5,30.77,NW,307,7.0,9.0,79,0.00,,,0.00,Wunderground v.1.15,2013-11-12 15:32:00,
2013-11-12 09:34:00,25.0,19.4,30.77,NW,321,7.0,9.0,79,0.00,,,0.00,Wunderground v.1.15,2013-11-12 15:34:00,
2013-11-12 09:38:00,25.0,19.1,30.77,NW,320,7.0,9.0,78,0.00,,,0.00,Wunderground v.1.15,2013-11-12 15:38:00,
2013-11-12 09:40:00,25.1,19.5,30.77,NW,304,7.0,8.0,79,0.00,,,0.00,Wunderground v.1.15,2013-11-12 15:40:00,
2013-11-12 09:44:00,25.1,19.2,30.77,NW,325,7.0,8.0,78,0.00,,,0.00,Wunderground v.1.15,2013-11-12 15:44:00,
2013-11-12 09:46:00,25.2,19.6,30.77,WNW,302,7.0,8.0,79,0.00,,,0.00,Wunderground v.1.15,2013-11-12 15:46:00,
2013-11-12 09:48:00,25.2,19.3,30.77,NNW,335,7.0,9.0,78,0.00,,,0.00,Wunderground v.1.15,2013-11-12 15:48:00,
2013-11-12 09:50:00,25.3,19.7,30.77,WNW,300,7.0,7.0,79,0.00,,,0.00,Wunderground v.1.15,2013-11-12 15:50:00,
2013-11-12 09:52:00,25.4,19.8,30.77,NW,306,7.0,8.0,79,0.00,,,0.00,Wunderground v.1.15,2013-11-12 15:52:00,
2013-11-12 09:54:00,25.5,19.6,30.77,NW,309,7.0,8.0,78,0.00,,,0.00,Wunderground v.1.15,2013-11-12 15:54:00,
2013-11-12 09:56:00,25.7,20.1,30.77,NW,317,7.0,8.0,79,0.00,,,0.00,Wunderground v.1.15,2013-11-12 15:56:00,
2013-11-12 10:02:00,26.0,20.7,30.77,NNW,335,7.0,8.0,80,0.00,,,0.00,Wunderground v.1.15,2013-11-12 16:02:00,
2013-11-12 10:08:00,26.2,20.6,30.77,NW,307,7.0,8.0,79,0.00,,,0.00,Wunderground v.1.15,2013-11-12 16:08:00,
2013-11-12 10:10:00,26.2,20.3,30.77,NNW,328,7.0,7.0,78,0.00,,,0.00,Wunderground v.1.15,2013-11-12 16:10:00,
2013-11-12 10:12:00,26.3,20.4,30.76,NNE,15,7.0,8.0,78,0.00,,,0.00,Wunderground v.1.15,2013-11-12 16:12:00,
2013-11-12 10:16:00,26.8,21.5,30.77,WNW,290,6.0,8.0,80,0.00,,,0.00,Wunderground v.1.15,2013-11-12 16:16:00,
2013-11-12 10:18:00,26.7,20.5,30.77,North,349,6.0,8.0,77,0.00,,,0.00,Wunderground v.1.15,2013-11-12 16:18:00,
2013-11-12 10:20:00,26.7,20.8,30.77,West,260,5.0,5.0,78,0.00,,,0.00,Wunderground v.1.15,2013-11-12 16:20:00,
2013-11-12 10:30:00,26.7,20.8,30.76,WNW,293,6.0,8.0,78,0.00,,,0.00,Wunderground v.1.15,2013-11-12 16:30:00,
2013-11-12 10:32:00,26.8,20.9,30.76,WNW,283,6.0,8.0,78,0.00,,,0.00,Wunderground v.1.15,2013-11-12 16:32:00,
2013-11-12 10:38:00,27.4,21.7,30.77,WNW,287,6.0,8.0,79,0.00,,,0.00,Wunderground v.1.15,2013-11-12 16:38:00,
2013-11-12 10:40:00,27.3,21.0,30.77,NW,314,6.0,6.0,77,0.00,,,0.00,Wunderground v.1.15,2013-11-12 16:40:00,
2013-11-12 10:42:00,27.3,21.3,30.77,WNW,283,6.0,7.0,78,0.00,,,0.00,Wunderground v.1.15,2013-11-12 16:42:00,
2013-11-12 10:46:00,27.5,22.1,30.77,West,281,6.0,8.0,80,0.00,,,0.00,Wunderground v.1.15,2013-11-12 16:46:00,
2013-11-12 10:52:00,27.4,21.1,30.77,WNW,287,6.0,9.0,77,0.00,,,0.00,Wunderground v.1.15,2013-11-12 16:52:00,
2013-11-12 10:54:00,27.3,20.7,30.77,NW,306,6.0,9.0,76,0.00,,,0.00,Wunderground v.1.15,2013-11-12 16:54:00,
2013-11-12 10:56:00,27.5,21.8,30.77,WNW,295,6.0,11.0,79,0.00,,,0.00,Wunderground v.1.15,2013-11-12 16:56:00,
2013-11-12 10:58:00,27.7,21.7,30.77,WSW,257,7.0,11.0,78,0.00,,,0.00,Wunderground v.1.15,2013-11-12 16:58:00,
2013-11-12 11:02:00,27.7,21.1,30.77,NW,322,7.0,11.0,76,0.00,,,0.00,Wunderground v.1.15,2013-11-12 17:02:00,
2013-11-12 11:04:00,27.8,21.2,30.77,NW,314,7.0,11.0,76,0.00,,,0.00,Wunderground v.1.15,2013-11-12 17:04:00,
2013-11-12 11:06:00,27.9,21.3,30.77,WNW,290,8.0,11.0,76,0.00,,,0.00,Wunderground v.1.15,2013-11-12 17:06:00,
2013-11-12 11:08:00,27.8,21.5,30.77,NW,306,7.0,11.0,77,0.00,,,0.00,Wunderground v.1.15,2013-11-12 17:08:00,
2013-11-12 11:10:00,27.8,21.8,30.76,WNW,303,7.0,8.0,78,0.00,,,0.00,Wunderground v.1.15,2013-11-12 17:10:00,
2013-11-12 11:12:00,28.0,22.3,30.77,West,279,7.0,8.0,79,0.00,,,0.00,Wunderground v.1.15,2013-11-12 17:12:00,
2013-11-12 11:16:00,28.0,21.4,30.77,WNW,300,8.0,10.0,76,0.00,,,0.00,Wunderground v.1.15,2013-11-12 17:16:00,
2013-11-12 11:20:00,28.1,22.4,30.76,NW,313,8.0,10.0,79,0.00,,,0.00,Wunderground v.1.15,2013-11-12 17:20:00,
2013-11-12 11:22:00,28.1,21.5,30.77,West,277,8.0,10.0,76,0.00,,,0.00,Wunderground v.1.15,2013-11-12 17:22:00,
2013-11-12 11:24:00,28.2,21.9,30.76,West,276,8.0,10.0,77,0.00,,,0.00,Wunderground v.1.15,2013-11-12 17:24:00,
2013-11-12 11:28:00,28.2,21.0,30.77,West,281,8.0,10.0,74,0.00,,,0.00,Wunderground v.1.15,2013-11-12 17:28:00,
2013-11-12 11:30:00,28.4,21.2,30.77,WNW,301,8.0,8.0,74,0.00,,,0.00,Wunderground v.1.15,2013-11-12 17:30:00,
2013-11-12 11:32:00,28.6,22.0,30.77,NNW,328,8.0,10.0,76,0.00,,,0.00,Wunderground v.1.15,2013-11-12 17:32:00,
2013-11-12 11:38:00,28.5,20.3,30.76,NNW,329,10.0,11.0,71,0.00,,,0.00,Wunderground v.1.15,2013-11-12 17:38:00,
2013-11-12 11:40:00,28.5,20.6,30.76,NNW,339,10.0,15.0,72,0.00,,,0.00,Wunderground v.1.15,2013-11-12 17:40:00,
2013-11-12 11:46:00,28.5,21.3,30.76,WNW,298,10.0,15.0,74,0.00,,,0.00,Wunderground v.1.15,2013-11-12 17:46:00,
2013-11-12 11:48:00,28.8,21.6,30.76,West,278,9.0,15.0,74,0.00,,,0.00,Wunderground v.1.15,2013-11-12 17:48:00,
2013-11-12 11:50:00,28.8,20.6,30.76,NW,311,9.0,9.0,71,0.00,,,0.00,Wunderground v.1.15,2013-11-12 17:50:00,
2013-11-12 11:52:00,28.7,20.8,30.76,NNW,342,9.0,9.0,72,0.00,,,0.00,Wunderground v.1.15,2013-11-12 17:52:00,
2013-11-12 11:54:00,28.8,21.6,30.75,WNW,293,9.0,9.0,74,0.00,,,0.00,Wunderground v.1.15,2013-11-12 17:54:00,
2013-11-12 11:58:00,28.8,20.9,30.75,WNW,295,10.0,10.0,72,0.00,,,0.00,Wunderground v.1.15,2013-11-12 17:58:00,
2013-11-12 12:00:00,29.0,21.1,30.75,NW,312,9.0,9.0,72,0.00,,,0.00,Wunderground v.1.15,2013-11-12 18:00:00,
2013-11-12 12:02:00,29.1,21.2,30.75,WNW,302,8.0,9.0,72,0.00,,,0.00,Wunderground v.1.15,2013-11-12 18:02:00,
2013-11-12 12:08:00,29.1,20.5,30.74,NW,318,8.0,12.0,70,0.00,,,0.00,Wunderground v.1.15,2013-11-12 18:08:00,
2013-11-12 12:10:00,29.2,21.0,30.74,West,273,9.0,9.0,71,0.00,,,0.00,Wunderground v.1.15,2013-11-12 18:10:00,
2013-11-12 12:12:00,29.1,20.9,30.74,West,260,9.0,9.0,71,0.00,,,0.00,Wunderground v.1.15,2013-11-12 18:12:00,
2013-11-12 12:14:00,29.2,21.6,30.74,WNW,287,9.0,9.0,73,0.00,,,0.00,Wunderground v.1.15,2013-11-12 18:14:00,
2013-11-12 12:16:00,29.3,21.1,30.74,WNW,295,9.0,9.0,71,0.00,,,0.00,Wunderground v.1.15,2013-11-12 18:16:00,
2013-11-12 12:18:00,29.3,21.1,30.74,West,281,9.0,9.0,71,0.00,,,0.00,Wunderground v.1.15,2013-11-12 18:18:00,
2013-11-12 12:20:00,29.5,21.6,30.74,NNW,328,9.0,10.0,72,0.00,,,0.00,Wunderground v.1.15,2013-11-12 18:20:00,
2013-11-12 12:22:00,29.7,22.1,30.74,NW,321,9.0,13.0,73,0.00,,,0.00,Wunderground v.1.15,2013-11-12 18:22:00,
2013-11-12 12:24:00,29.7,21.1,30.74,WSW,242,8.0,13.0,70,0.00,,,0.00,Wunderground v.1.15,2013-11-12 18:24:00,
2013-11-12 12:30:00,29.8,21.2,30.74,NW,311,9.0,14.0,70,0.00,,,0.00,Wunderground v.1.15,2013-11-12 18:30:00,
2013-11-12 12:34:00,29.7,21.1,30.74,West,276,10.0,14.0,70,0.00,,,0.00,Wunderground v.1.15,2013-11-12 18:34:00,
2013-11-12 12:36:00,29.6,20.0,30.74,WNW,284,11.0,16.0,67,0.00,,,0.00,Wunderground v.1.15,2013-11-12 18:36:00,
2013-11-12 12:38:00,29.4,20.1,30.74,WNW,284,11.0,16.0,68,0.00,,,0.00,Wunderground v.1.15,2013-11-12 18:38:00,
2013-11-12 12:44:00,29.8,20.9,30.74,West,281,9.0,10.0,69,0.00,,,0.00,Wunderground v.1.15,2013-11-12 18:44:00,
2013-11-12 12:48:00,30.0,21.1,30.74,WNW,300,8.0,10.0,69,0.00,,,0.00,Wunderground v.1.15,2013-11-12 18:48:00,
2013-11-12 12:50:00,30.1,21.8,30.74,NW,322,8.0,11.0,71,0.00,,,0.00,Wunderground v.1.15,2013-11-12 18:50:00,
2013-11-12 12:54:00,30.1,21.2,30.74,WNW,295,8.0,11.0,69,0.00,,,0.00,Wunderground v.1.15,2013-11-12 18:54:00,
2013-11-12 12:56:00,30.0,21.1,30.74,WNW,288,8.0,14.0,69,0.00,,,0.00,Wunderground v.1.15,2013-11-12 18:56:00,
2013-11-12 12:58:00,30.0,21.4,30.74,West,274,8.0,14.0,70,0.00,,,0.00,Wunderground v.1.15,2013-11-12 18:58:00,
2013-11-12 13:00:00,30.0,21.4,30.74,West,259,9.0,10.0,70,0.00,,,0.00,Wunderground v.1.15,2013-11-12 19:00:00,
2013-11-12 13:02:00,30.0,21.4,30.74,WNW,289,9.0,10.0,70,0.00,,,0.00,Wunderground v.1.15,2013-11-12 19:02:00,
2013-11-12 13:04:00,30.1,21.2,30.74,WNW,288,9.0,14.0,69,0.00,,,0.00,Wunderground v.1.15,2013-11-12 19:04:00,
2013-11-12 13:06:00,30.1,21.2,30.74,WNW,294,9.0,14.0,69,0.00,,,0.00,Wunderground v.1.15,2013-11-12 19:06:00,
2013-11-12 13:08:00,30.0,21.4,30.74,NW,312,9.0,14.0,70,0.00,,,0.00,Wunderground v.1.15,2013-11-12 19:08:00,
2013-11-12 13:14:00,30.2,21.2,30.74,West,271,10.0,16.0,69,0.00,,,0.00,Wunderground v.1.15,2013-11-12 19:14:00,
2013-11-12 13:16:00,30.3,21.7,30.74,NW,316,10.0,16.0,70,0.00,,,0.00,Wunderground v.1.15,2013-11-12 19:16:00,
2013-11-12 13:18:00,30.4,21.4,30.74,WSW,250,10.0,16.0,69,0.00,,,0.00,Wunderground v.1.15,2013-11-12 19:18:00,
2013-11-12 13:24:00,30.4,21.4,30.73,NW,323,9.0,10.0,69,0.00,,,0.00,Wunderground v.1.15,2013-11-12 19:24:00,
2013-11-12 13:26:00,30.6,21.6,30.74,WNW,301,8.0,10.0,69,0.00,,,0.00,Wunderground v.1.15,2013-11-12 19:26:00,
2013-11-12 13:28:00,30.7,21.4,30.74,WNW,295,9.0,10.0,68,0.00,,,0.00,Wunderground v.1.15,2013-11-12 19:28:00,
2013-11-12 13:32:00,30.8,21.8,30.74,WNW,298,8.0,14.0,69,0.00,,,0.00,Wunderground v.1.15,2013-11-12 19:32:00,
2013-11-12 13:34:00,30.8,21.8,30.74,NW,311,9.0,14.0,69,0.00,,,0.00,Wunderground v.1.15,2013-11-12 19:34:00,
2013-11-12 13:36:00,30.8,21.5,30.74,West,281,10.0,14.0,68,0.00,,,0.00,Wunderground v.1.15,2013-11-12 19:36:00,
2013-11-12 13:40:00,30.8,21.1,30.74,West,278,10.0,11.0,67,0.00,,,0.00,Wunderground v.1.15,2013-11-12 19:40:00,
2013-11-12 13:42:00,31.0,21.7,30.74,West,274,10.0,15.0,68,0.00,,,0.00,Wunderground v.1.15,2013-11-12 19:42:00,
2013-11-12 13:46:00,31.0,21.0,30.74,NW,324,10.0,15.0,66,0.00,,,0.00,Wunderground v.1.15,2013-11-12 19:46:00,
2013-11-12 13:48:00,31.0,20.6,30.74,WNW,297,11.0,15.0,65,0.00,,,0.00,Wunderground v.1.15,2013-11-12 19:48:00,
2013-11-12 13:50:00,31.0,20.2,30.74,WNW,290,11.0,12.0,64,0.00,,,0.00,Wunderground v.1.15,2013-11-12 19:50:00,
2013-11-12 13:52:00,30.9,20.1,30.73,WNW,290,11.0,12.0,64,0.00,,,0.00,Wunderground v.1.15,2013-11-12 19:52:00,
2013-11-12 13:58:00,31.3,20.9,30.73,West,260,10.0,18.0,65,0.00,,,0.00,Wunderground v.1.15,2013-11-12 19:58:00,
2013-11-12 14:00:00,31.1,20.7,30.73,West,273,10.0,10.0,65,0.00,,,0.00,Wunderground v.1.15,2013-11-12 20:00:00,
2013-11-12 14:02:00,31.0,21.0,30.73,West,278,10.0,10.0,66,0.00,,,0.00,Wunderground v.1.15,2013-11-12 20:02:00,
2013-11-12 14:04:00,31.1,21.4,30.73,WSW,242,10.0,12.0,67,0.00,,,0.00,Wunderground v.1.15,2013-11-12 20:04:00,
2013-11-12 14:06:00,31.1,21.8,30.73,WNW,302,11.0,12.0,68,0.00,,,0.00,Wunderground v.1.15,2013-11-12 20:06:00,
2013-11-12 14:12:00,31.4,22.1,30.73,WNW,283,10.0,15.0,68,0.00,,,0.00,Wunderground v.1.15,2013-11-12 20:12:00,
2013-11-12 14:14:00,31.5,22.1,30.73,West,264,10.0,15.0,68,0.00,,,0.00,Wunderground v.1.15,2013-11-12 20:14:00,
2013-11-12 14:16:00,31.5,22.1,30.73,NW,304,10.0,15.0,68,0.00,,,0.00,Wunderground v.1.15,2013-11-12 20:16:00,
2013-11-12 14:18:00,31.5,22.1,30.73,WNW,295,10.0,15.0,68,0.00,,,0.00,Wunderground v.1.15,2013-11-12 20:18:00,
2013-11-12 14:20:00,31.4,21.7,30.73,West,273,10.0,11.0,67,0.00,,,0.00,Wunderground v.1.15,2013-11-12 20:20:00,
2013-11-12 14:24:00,31.5,22.1,30.73,NW,307,9.0,11.0,68,0.00,,,0.00,Wunderground v.1.15,2013-11-12 20:24:00,
2013-11-12 14:26:00,31.7,22.7,30.73,West,260,9.0,11.0,69,0.00,,,0.00,Wunderground v.1.15,2013-11-12 20:26:00,
2013-11-12 14:28:00,31.7,22.0,30.73,NW,316,9.0,11.0,67,0.00,,,0.00,Wunderground v.1.15,2013-11-12 20:28:00,
2013-11-12 14:34:00,31.7,20.2,30.73,WNW,285,9.0,12.0,62,0.00,,,0.00,Wunderground v.1.15,2013-11-12 20:34:00,
2013-11-12 14:36:00,31.5,20.0,30.72,West,276,10.0,12.0,62,0.00,,,0.00,Wunderground v.1.15,2013-11-12 20:36:00,
2013-11-12 14:38:00,31.4,19.9,30.72,West,262,10.0,12.0,62,0.00,,,0.00,Wunderground v.1.15,2013-11-12 20:38:00,
2013-11-12 14:42:00,31.5,20.3,30.72,WNW,284,10.0,10.0,63,0.00,,,0.00,Wunderground v.1.15,2013-11-12 20:42:00,
2013-11-12 14:44:00,31.4,20.6,30.72,WNW,283,9.0,12.0,64,0.00,,,0.00,Wunderground v.1.15,2013-11-12 20:44:00,
2013-11-12 14:46:00,31.5,21.4,30.72,WNW,290,9.0,12.0,66,0.00,,,0.00,Wunderground v.1.15,2013-11-12 20:46:00,
2013-11-12 14:50:00,31.5,21.4,30.72,WNW,285,9.0,9.0,66,0.00,,,0.00,Wunderground v.1.15,2013-11-12 20:50:00,
2013-11-12 14:52:00,31.5,20.3,30.72,WNW,293,9.0,9.0,63,0.00,,,0.00,Wunderground v.1.15,2013-11-12 20:52:00,
2013-11-12 14:54:00,31.4,20.6,30.72,West,276,9.0,9.0,64,0.00,,,0.00,Wunderground v.1.15,2013-11-12 20:54:00,
2013-11-12 14:58:00,31.3,20.2,30.72,WNW,293,10.0,10.0,63,0.00,,,0.00,Wunderground v.1.15,2013-11-12 20:58:00,
2013-11-12 15:00:00,31.2,21.2,30.71,West,269,10.0,13.0,66,0.00,,,0.00,Wunderground v.1.15,2013-11-12 21:00:00,
2013-11-12 15:04:00,31.2,20.4,30.71,WNW,288,10.0,13.0,64,0.00,,,0.00,Wunderground v.1.15,2013-11-12 21:04:00,
2013-11-12 15:06:00,31.2,20.8,30.71,West,271,10.0,13.0,65,0.00,,,0.00,Wunderground v.1.15,2013-11-12 21:06:00,
2013-11-12 15:12:00,31.4,21.7,30.71,West,267,8.0,9.0,67,0.00,,,0.00,Wunderground v.1.15,2013-11-12 21:12:00,
2013-11-12 15:14:00,31.4,21.3,30.71,NNW,328,8.0,10.0,66,0.00,,,0.00,Wunderground v.1.15,2013-11-12 21:14:00,
2013-11-12 15:20:00,31.2,21.2,30.71,West,263,8.0,9.0,66,0.00,,,0.00,Wunderground v.1.15,2013-11-12 21:20:00,
2013-11-12 15:22:00,31.1,20.7,30.71,WNW,297,9.0,9.0,65,0.00,,,0.00,Wunderground v.1.15,2013-11-12 21:22:00,
2013-11-12 15:26:00,31.1,21.4,30.71,WSW,256,8.0,10.0,67,0.00,,,0.00,Wunderground v.1.15,2013-11-12 21:26:00,
2013-11-12 15:28:00,31.1,21.1,30.71,West,270,8.0,10.0,66,0.00,,,0.00,Wunderground v.1.15,2013-11-12 21:28:00,
2013-11-12 15:30:00,31.1,21.4,30.71,WNW,298,8.0,8.0,67,0.00,,,0.00,Wunderground v.1.15,2013-11-12 21:30:00,
2013-11-12 15:32:00,31.1,20.7,30.70,WSW,243,7.0,8.0,65,0.00,,,0.00,Wunderground v.1.15,2013-11-12 21:32:00,
2013-11-12 15:34:00,31.1,21.1,30.70,West,267,8.0,8.0,66,0.00,,,0.00,Wunderground v.1.15,2013-11-12 21:34:00,
2013-11-12 15:40:00,31.0,21.0,30.70,WSW,248,8.0,8.0,66,0.00,,,0.00,Wunderground v.1.15,2013-11-12 21:40:00,
2013-11-12 15:42:00,31.0,21.0,30.70,West,276,8.0,8.0,66,0.00,,,0.00,Wunderground v.1.15,2013-11-12 21:42:00,
2013-11-12 15:44:00,31.0,20.6,30.70,West,274,7.0,8.0,65,0.00,,,0.00,Wunderground v.1.15,2013-11-12 21:44:00,
2013-11-12 15:48:00,30.9,20.5,30.70,WSW,250,7.0,8.0,65,0.00,,,0.00,Wunderground v.1.15,2013-11-12 21:48:00,
2013-11-12 15:50:00,30.9,19.8,30.70,WSW,257,7.0,8.0,63,0.00,,,0.00,Wunderground v.1.15,2013-11-12 21:50:00,
2013-11-12 15:54:00,30.7,19.2,30.70,West,260,8.0,10.0,62,0.00,,,0.00,Wunderground v.1.15,2013-11-12 21:54:00,
2013-11-12 15:56:00,30.6,19.1,30.70,WNW,283,8.0,10.0,62,0.00,,,0.00,Wunderground v.1.15,2013-11-12 21:56:00,
2013-11-12 15:58:00,30.5,19.4,30.70,WNW,294,8.0,11.0,63,0.00,,,0.00,Wunderground v.1.15,2013-11-12 21:58:00,
2013-11-12 16:00:00,30.4,18.9,30.70,West,271,8.0,8.0,62,0.00,,,0.00,Wunderground v.1.15,2013-11-12 22:00:00,
2013-11-12 16:02:00,30.4,18.9,30.70,WSW,255,8.0,8.0,62,0.00,,,0.00,Wunderground v.1.15,2013-11-12 22:02:00,
2013-11-12 16:04:00,30.3,19.6,30.70,West,274,8.0,8.0,64,0.00,,,0.00,Wunderground v.1.15,2013-11-12 22:04:00,
2013-11-12 16:10:00,30.1,19.7,30.70,WSW,258,9.0,9.0,65,0.00,,,0.00,Wunderground v.1.15,2013-11-12 22:10:00,
2013-11-12 16:12:00,30.0,20.0,30.70,West,263,9.0,11.0,66,0.00,,,0.00,Wunderground v.1.15,2013-11-12 22:12:00,
2013-11-12 16:14:00,29.9,19.9,30.70,West,278,9.0,11.0,66,0.00,,,0.00,Wunderground v.1.15,2013-11-12 22:14:00,
2013-11-12 16:16:00,29.8,19.8,30.70,West,271,9.0,11.0,66,0.00,,,0.00,Wunderground v.1.15,2013-11-12 22:16:00,
2013-11-12 16:18:00,29.8,20.2,30.70,WSW,250,8.0,11.0,67,0.00,,,0.00,Wunderground v.1.15,2013-11-12 22:18:00,
2013-11-12 16:20:00,29.7,20.4,30.70,WNW,290,8.0,8.0,68,0.00,,,0.00,Wunderground v.1.15,2013-11-12 22:20:00,
2013-11-12 16:24:00,29.5,20.2,30.70,West,260,8.0,8.0,68,0.00,,,0.00,Wunderground v.1.15,2013-11-12 22:24:00,
2013-11-12 16:28:00,29.2,19.9,30.70,West,278,7.0,8.0,68,0.00,,,0.00,Wunderground v.1.15,2013-11-12 22:28:00,
2013-11-12 16:32:00,29.0,20.1,30.70,West,260,7.0,8.0,69,0.00,,,0.00,Wunderground v.1.15,2013-11-12 22:32:00,
2013-11-12 16:34:00,28.9,20.3,30.70,WNW,295,7.0,8.0,70,0.00,,,0.00,Wunderground v.1.15,2013-11-12 22:34:00,
2013-11-12 16:36:00,28.8,20.6,30.70,West,276,7.0,8.0,71,0.00,,,0.00,Wunderground v.1.15,2013-11-12 22:36:00,
2013-11-12 16:38:00,28.6,20.4,30.70,West,271,7.0,8.0,71,0.00,,,0.00,Wunderground v.1.15,2013-11-12 22:38:00,
2013-11-12 16:42:00,28.4,20.8,30.70,West,267,6.0,8.0,73,0.00,,,0.00,Wunderground v.1.15,2013-11-12 22:42:00,
2013-11-12 16:44:00,28.3,20.7,30.70,WNW,287,6.0,8.0,73,0.00,,,0.00,Wunderground v.1.15,2013-11-12 22:44:00,
2013-11-12 16:48:00,28.0,20.8,30.70,WNW,298,5.0,8.0,74,0.00,,,0.00,Wunderground v.1.15,2013-11-12 22:48:00,
2013-11-12 16:50:00,27.9,21.0,30.70,West,273,4.0,8.0,75,0.00,,,0.00,Wunderground v.1.15,2013-11-12 22:50:00,
2013-11-12 16:52:00,27.7,20.8,30.70,West,281,4.0,8.0,75,0.00,,,0.00,Wunderground v.1.15,2013-11-12 22:52:00,
2013-11-12 16:54:00,27.7,20.8,30.70,NW,311,5.0,8.0,75,0.00,,,0.00,Wunderground v.1.15,2013-11-12 22:54:00,
2013-11-12 17:00:00,27.3,20.4,30.70,WNW,298,5.0,8.0,75,0.00,,,0.00,Wunderground v.1.15,2013-11-12 23:00:00,
2013-11-12 17:02:00,27.2,20.3,30.70,WNW,285,5.0,8.0,75,0.00,,,0.00,Wunderground v.1.15,2013-11-12 23:02:00,
2013-11-12 17:04:00,27.1,20.5,30.70,West,269,5.0,8.0,76,0.00,,,0.00,Wunderground v.1.15,2013-11-12 23:04:00,
2013-11-12 17:06:00,27.1,20.5,30.70,WSW,254,4.0,8.0,76,0.00,,,0.00,Wunderground v.1.15,2013-11-12 23:06:00,
2013-11-12 17:08:00,27.0,20.7,30.70,SW,228,4.0,8.0,77,0.00,,,0.00,Wunderground v.1.15,2013-11-12 23:08:00,
2013-11-12 17:14:00,26.5,20.3,30.70,West,263,3.0,8.0,77,0.00,,,0.00,Wunderground v.1.15,2013-11-12 23:14:00,
2013-11-12 17:16:00,26.4,20.2,30.70,West,271,3.0,8.0,77,0.00,,,0.00,Wunderground v.1.15,2013-11-12 23:16:00,
2013-11-12 17:22:00,26.1,20.2,30.70,West,263,4.0,8.0,78,0.00,,,0.00,Wunderground v.1.15,2013-11-12 23:22:00,
2013-11-12 17:24:00,25.9,20.0,30.70,West,264,3.0,8.0,78,0.00,,,0.00,Wunderground v.1.15,2013-11-12 23:24:00,
2013-11-12 17:26:00,25.8,19.9,30.70,WSW,245,3.0,8.0,78,0.00,,,0.00,Wunderground v.1.15,2013-11-12 23:26:00,
2013-11-12 17:30:00,25.5,19.9,30.70,WSW,253,3.0,8.0,79,0.00,,,0.00,Wunderground v.1.15,2013-11-12 23:30:00,
2013-11-12 17:32:00,25.4,19.8,30.70,WSW,253,3.0,8.0,79,0.00,,,0.00,Wunderground v.1.15,2013-11-12 23:32:00,
2013-11-12 17:34:00,25.3,20.0,30.70,WSW,253,3.0,8.0,80,0.00,,,0.00,Wunderground v.1.15,2013-11-12 23:34:00,
2013-11-12 17:38:00,25.1,19.8,30.70,WSW,248,3.0,8.0,80,0.00,,,0.00,Wunderground v.1.15,2013-11-12 23:38:00,
2013-11-12 17:40:00,25.1,19.8,30.70,West,271,3.0,8.0,80,0.00,,,0.00,Wunderground v.1.15,2013-11-12 23:40:00,
2013-11-12 17:42:00,25.1,19.8,30.70,West,260,3.0,8.0,80,0.00,,,0.00,Wunderground v.1.15,2013-11-12 23:42:00,
2013-11-12 17:44:00,25.0,19.7,30.70,West,277,4.0,8.0,80,0.00,,,0.00,Wunderground v.1.15,2013-11-12 23:44:00,
2013-11-12 17:46:00,25.0,19.7,30.70,West,264,4.0,8.0,80,0.00,,,0.00,Wunderground v.1.15,2013-11-12 23:46:00,
2013-11-12 17:48:00,24.9,19.6,30.70,West,260,4.0,8.0,80,0.00,,,0.00,Wunderground v.1.15,2013-11-12 23:48:00,
2013-11-12 17:50:00,24.9,19.6,30.70,WSW,248,4.0,4.0,80,0.00,,,0.00,Wunderground v.1.15,2013-11-12 23:50:00,
2013-11-12 17:54:00,24.8,19.5,30.70,WSW,256,4.0,8.0,80,0.00,,,0.00,Wunderground v.1.15,2013-11-12 23:54:00,
2013-11-12 17:56:00,24.7,19.4,30.70,WSW,239,4.0,8.0,80,0.00,,,0.00,Wunderground v.1.15,2013-11-12 23:56:00,
2013-11-12 18:00:00,24.6,19.3,30.70,WSW,248,3.0,8.0,80,0.00,,,0.00,Wunderground v.1.15,2013-11-13 00:00:00,
2013-11-12 18:02:00,24.5,19.5,30.70,WSW,243,3.0,8.0,81,0.00,,,0.00,Wunderground v.1.15,2013-11-13 00:02:00,
2013-11-12 18:04:00,24.4,19.4,30.70,West,262,3.0,8.0,81,0.00,,,0.00,Wunderground v.1.15,2013-11-13 00:04:00,
2013-11-12 18:06:00,24.3,19.3,30.70,WSW,239,3.0,8.0,81,0.00,,,0.00,Wunderground v.1.15,2013-11-13 00:06:00,
2013-11-12 18:08:00,24.2,19.2,30.70,West,270,3.0,8.0,81,0.00,,,0.00,Wunderground v.1.15,2013-11-13 00:08:00,
2013-11-12 18:10:00,24.2,19.2,30.70,West,259,3.0,8.0,81,0.00,,,0.00,Wunderground v.1.15,2013-11-13 00:10:00,
2013-11-12 18:16:00,24.0,19.3,30.70,WSW,257,3.0,8.0,82,0.00,,,0.00,Wunderground v.1.15,2013-11-13 00:16:00,
2013-11-12 18:18:00,24.1,19.4,30.70,WSW,245,4.0,8.0,82,0.00,,,0.00,Wunderground v.1.15,2013-11-13 00:18:00,
2013-11-12 18:20:00,24.1,19.1,30.70,West,271,4.0,8.0,81,0.00,,,0.00,Wunderground v.1.15,2013-11-13 00:20:00,
2013-11-12 18:22:00,24.1,19.1,30.70,West,267,4.0,8.0,81,0.00,,,0.00,Wunderground v.1.15,2013-11-13 00:22:00,
2013-11-12 18:24:00,24.1,19.1,30.70,WSW,245,4.0,8.0,81,0.00,,,0.00,Wunderground v.1.15,2013-11-13 00:24:00,
2013-11-12 18:28:00,24.0,19.0,30.70,SW,236,4.0,8.0,81,0.00,,,0.00,Wunderground v.1.15,2013-11-13 00:28:00,
2013-11-12 18:34:00,24.1,19.1,30.70,SW,224,4.0,8.0,81,0.00,,,0.00,Wunderground v.1.15,2013-11-13 00:34:00,
2013-11-12 18:40:00,24.0,19.0,30.70,WSW,239,4.0,8.0,81,0.00,,,0.00,Wunderground v.1.15,2013-11-13 00:40:00,
2013-11-12 18:42:00,23.9,18.9,30.70,WSW,245,4.0,8.0,81,0.00,,,0.00,Wunderground v.1.15,2013-11-13 00:42:00,
2013-11-12 18:44:00,23.9,18.9,30.70,West,281,4.0,8.0,81,0.00,,,0.00,Wunderground v.1.15,2013-11-13 00:44:00,
2013-11-12 18:46:00,23.8,18.8,30.70,WSW,250,4.0,8.0,81,0.00,,,0.00,Wunderground v.1.15,2013-11-13 00:46:00,
2013-11-12 18:51:00,23.6,18.6,30.69,WSW,255,3.0,3.0,81,0.00,,,0.00,Wunderground v.1.15,2013-11-13 00:51:00,
2013-11-12 18:52:00,23.6,18.6,30.69,West,270,3.0,8.0,81,0.00,,,0.00,Wunderground v.1.15,2013-11-13 00:52:00,
2013-11-12 18:54:00,23.5,18.5,30.69,West,267,3.0,8.0,81,0.00,,,0.00,Wunderground v.1.15,2013-11-13 00:54:00,
2013-11-12 18:56:00,23.4,18.7,30.69,West,260,3.0,8.0,82,0.00,,,0.00,Wunderground v.1.15,2013-11-13 00:56:00,
2013-11-12 18:58:00,23.3,18.6,30.69,WSW,241,3.0,8.0,82,0.00,,,0.00,Wunderground v.1.15,2013-11-13 00:58:00,
2013-11-12 19:02:00,23.3,18.6,30.69,WSW,243,3.0,8.0,82,0.00,,,0.00,Wunderground v.1.15,2013-11-13 01:02:00,
2013-11-12 19:06:00,23.2,18.2,30.69,WSW,250,3.0,8.0,81,0.00,,,0.00,Wunderground v.1.15,2013-11-13 01:06:00,
2013-11-12 19:08:00,23.2,18.2,30.69,WSW,252,3.0,8.0,81,0.00,,,0.00,Wunderground v.1.15,2013-11-13 01:08:00,
2013-11-12 19:10:00,23.1,18.1,30.69,WSW,248,3.0,8.0,81,0.00,,,0.00,Wunderground v.1.15,2013-11-13 01:10:00,
2013-11-12 19:14:00,22.9,18.2,30.69,WSW,256,3.0,8.0,82,0.00,,,0.00,Wunderground v.1.15,2013-11-13 01:14:00,
2013-11-12 19:16:00,22.8,18.1,30.69,WSW,251,3.0,8.0,82,0.00,,,0.00,Wunderground v.1.15,2013-11-13 01:16:00,
2013-11-12 19:20:00,22.7,18.0,30.69,West,267,3.0,8.0,82,0.00,,,0.00,Wunderground v.1.15,2013-11-13 01:20:00,
2013-11-12 19:24:00,22.5,17.8,30.69,West,277,3.0,8.0,82,0.00,,,0.00,Wunderground v.1.15,2013-11-13 01:24:00,
2013-11-12 19:26:00,22.5,17.8,30.69,WSW,255,3.0,8.0,82,0.00,,,0.00,Wunderground v.1.15,2013-11-13 01:26:00,
2013-11-12 19:32:00,22.5,17.8,30.68,SW,233,4.0,8.0,82,0.00,,,0.00,Wunderground v.1.15,2013-11-13 01:32:00,
2013-11-12 19:36:00,22.5,17.8,30.68,WSW,248,4.0,8.0,82,0.00,,,0.00,Wunderground v.1.15,2013-11-13 01:36:00,
2013-11-12 19:44:00,22.3,17.6,30.67,WSW,248,4.0,4.0,82,0.00,,,0.00,Wunderground v.1.15,2013-11-13 01:44:00,
2013-11-12 19:46:00,22.2,17.5,30.67,SW,235,4.0,8.0,82,0.00,,,0.00,Wunderground v.1.15,2013-11-13 01:46:00,
2013-11-12 19:50:00,22.1,17.4,30.67,WSW,256,4.0,8.0,82,0.00,,,0.00,Wunderground v.1.15,2013-11-13 01:50:00,
2013-11-12 19:52:00,22.0,17.3,30.67,SW,228,4.0,8.0,82,0.00,,,0.00,Wunderground v.1.15,2013-11-13 01:52:00,
2013-11-12 19:58:00,21.8,17.4,30.67,WSW,237,4.0,8.0,83,0.00,,,0.00,Wunderground v.1.15,2013-11-13 01:58:00,
2013-11-12 20:00:00,21.8,17.4,30.67,WNW,283,4.0,4.0,83,0.00,,,0.00,Wunderground v.1.15,2013-11-13 02:00:00,
2013-11-12 20:02:00,21.8,17.4,30.67,West,273,4.0,5.0,83,0.00,,,0.00,Wunderground v.1.15,2013-11-13 02:02:00,
2013-11-12 20:04:00,21.7,17.6,30.68,WSW,248,3.0,8.0,84,0.00,,,0.00,Wunderground v.1.15,2013-11-13 02:04:00,
2013-11-12 20:06:00,21.7,17.6,30.68,WSW,253,3.0,8.0,84,0.00,,,0.00,Wunderground v.1.15,2013-11-13 02:06:00,
2013-11-12 20:15:00,21.7,17.6,30.68,WSW,253,3.0,3.0,84,0.00,,,0.00,Wunderground v.1.15,2013-11-13 02:15:00,
2013-11-12 20:16:00,21.7,17.6,30.68,WSW,257,3.0,8.0,84,0.00,,,0.00,Wunderground v.1.15,2013-11-13 02:16:00,
2013-11-12 20:18:00,21.7,17.6,30.68,West,263,3.0,8.0,84,0.00,,,0.00,Wunderground v.1.15,2013-11-13 02:18:00,
2013-11-12 20:20:00,21.6,17.5,30.68,WSW,253,3.0,8.0,84,0.00,,,0.00,Wunderground v.1.15,2013-11-13 02:20:00,
2013-11-12 20:22:00,21.6,17.5,30.68,WSW,241,3.0,8.0,84,0.00,,,0.00,Wunderground v.1.15,2013-11-13 02:22:00,
2013-11-12 20:30:00,21.3,17.2,30.68,WSW,245,3.0,8.0,84,0.00,,,0.00,Wunderground v.1.15,2013-11-13 02:30:00,
2013-11-12 20:32:00,21.2,17.1,30.68,WSW,256,3.0,8.0,84,0.00,,,0.00,Wunderground v.1.15,2013-11-13 02:32:00,
2013-11-12 20:34:00,21.2,17.1,30.68,WSW,239,3.0,8.0,84,0.00,,,0.00,Wunderground v.1.15,2013-11-13 02:34:00,
2013-11-12 20:39:00,21.2,17.1,30.68,WSW,257,2.0,8.0,84,0.00,,,0.00,Wunderground v.1.15,2013-11-13 02:39:00,
2013-11-12 20:40:00,21.1,17.0,30.68,WSW,248,2.0,8.0,84,0.00,,,0.00,Wunderground v.1.15,2013-11-13 02:40:00,
2013-11-12 20:44:00,21.1,17.0,30.68,WNW,302,3.0,8.0,84,0.00,,,0.00,Wunderground v.1.15,2013-11-13 02:44:00,
2013-11-12 20:46:00,21.0,16.9,30.68,West,269,3.0,8.0,84,0.00,,,0.00,Wunderground v.1.15,2013-11-13 02:46:00,
2013-11-12 20:48:00,20.9,17.1,30.68,West,276,2.0,8.0,85,0.00,,,0.00,Wunderground v.1.15,2013-11-13 02:48:00,
2013-11-12 20:50:00,20.9,17.1,30.68,West,278,2.0,8.0,85,0.00,,,0.00,Wunderground v.1.15,2013-11-13 02:50:00,
2013-11-12 20:52:00,20.8,17.0,30.68,West,264,2.0,8.0,85,0.00,,,0.00,Wunderground v.1.15,2013-11-13 02:52:00,
2013-11-12 20:58:00,20.8,17.0,30.68,WSW,255,2.0,8.0,85,0.00,,,0.00,Wunderground v.1.15,2013-11-13 02:58:00,
2013-11-12 21:00:00,20.8,17.3,30.68,West,273,2.0,8.0,86,0.00,,,0.00,Wunderground v.1.15,2013-11-13 03:00:00,
2013-11-12 21:04:00,20.8,17.3,30.68,West,267,2.0,8.0,86,0.00,,,0.00,Wunderground v.1.15,2013-11-13 03:04:00,
2013-11-12 21:06:00,20.8,17.0,30.69,West,277,2.0,8.0,85,0.00,,,0.00,Wunderground v.1.15,2013-11-13 03:06:00,
2013-11-12 21:08:00,20.7,16.9,30.69,WSW,248,2.0,8.0,85,0.00,,,0.00,Wunderground v.1.15,2013-11-13 03:08:00,
2013-11-12 21:10:00,20.7,16.9,30.69,West,267,2.0,8.0,85,0.00,,,0.00,Wunderground v.1.15,2013-11-13 03:10:00,
2013-11-12 21:16:00,20.8,17.0,30.69,SW,235,2.0,8.0,85,0.00,,,0.00,Wunderground v.1.15,2013-11-13 03:16:00,
2013-11-12 21:19:00,21.0,17.2,30.69,WNW,282,3.0,8.0,85,0.00,,,0.00,Wunderground v.1.15,2013-11-13 03:19:00,
2013-11-12 21:26:00,21.3,17.5,30.69,West,275,4.0,8.0,85,0.00,,,0.00,Wunderground v.1.15,2013-11-13 03:26:00,
2013-11-12 21:28:00,21.3,17.5,30.69,West,262,3.0,8.0,85,0.00,,,0.00,Wunderground v.1.15,2013-11-13 03:28:00,
2013-11-12 21:40:00,21.6,17.5,30.68,West,260,3.0,3.0,84,0.00,,,0.00,Wunderground v.1.15,2013-11-13 03:40:00,
2013-11-12 21:42:00,21.7,17.3,30.68,West,277,3.0,8.0,83,0.00,,,0.00,Wunderground v.1.15,2013-11-13 03:42:00,
2013-11-12 21:44:00,21.6,17.2,30.69,WSW,240,2.0,8.0,83,0.00,,,0.00,Wunderground v.1.15,2013-11-13 03:44:00,
2013-11-12 21:46:00,21.5,17.1,30.69,WSW,252,2.0,8.0,83,0.00,,,0.00,Wunderground v.1.15,2013-11-13 03:46:00,
2013-11-12 21:50:00,21.2,16.8,30.68,West,262,2.0,2.0,83,0.00,,,0.00,Wunderground v.1.15,2013-11-13 03:50:00,
2013-11-12 21:52:00,21.1,16.7,30.68,WSW,242,2.0,8.0,83,0.00,,,0.00,Wunderground v.1.15,2013-11-13 03:52:00,
2013-11-12 21:54:00,20.9,16.5,30.68,WSW,239,2.0,8.0,83,0.00,,,0.00,Wunderground v.1.15,2013-11-13 03:54:00,
2013-11-12 21:56:00,20.8,16.7,30.68,WSW,240,2.0,8.0,84,0.00,,,0.00,Wunderground v.1.15,2013-11-13 03:56:00,
2013-11-12 22:00:00,20.7,16.6,30.68,WSW,239,2.0,8.0,84,0.00,,,0.00,Wunderground v.1.15,2013-11-13 04:00:00,
2013-11-12 22:02:00,20.6,16.5,30.68,WSW,238,2.0,8.0,84,0.00,,,0.00,Wunderground v.1.15,2013-11-13 04:02:00,
2013-11-12 22:04:00,20.6,16.5,30.68,WSW,248,2.0,8.0,84,0.00,,,0.00,Wunderground v.1.15,2013-11-13 04:04:00,
2013-11-12 22:06:00,20.5,16.4,30.68,WSW,246,2.0,8.0,84,0.00,,,0.00,Wunderground v.1.15,2013-11-13 04:06:00,
2013-11-12 22:08:00,20.5,16.4,30.68,SW,235,2.0,8.0,84,0.00,,,0.00,Wunderground v.1.15,2013-11-13 04:08:00,
2013-11-12 22:14:00,19.7,15.6,30.68,SW,232,1.0,8.0,84,0.00,,,0.00,Wunderground v.1.15,2013-11-13 04:14:00,
2013-11-12 22:16:00,19.5,15.7,30.68,SW,231,1.0,8.0,85,0.00,,,0.00,Wunderground v.1.15,2013-11-13 04:16:00,
2013-11-12 22:18:00,19.4,15.9,30.68,WSW,241,1.0,8.0,86,0.00,,,0.00,Wunderground v.1.15,2013-11-13 04:18:00,
2013-11-12 22:20:00,19.3,15.8,30.68,SW,231,1.0,1.0,86,0.00,,,0.00,Wunderground v.1.15,2013-11-13 04:20:00,
2013-11-12 22:24:00,19.2,16.0,30.68,SW,224,2.0,8.0,87,0.00,,,0.00,Wunderground v.1.15,2013-11-13 04:24:00,
2013-11-12 22:26:00,19.2,16.0,30.68,SW,219,2.0,8.0,87,0.00,,,0.00,Wunderground v.1.15,2013-11-13 04:26:00,
2013-11-12 22:28:00,19.3,16.1,30.68,WSW,239,2.0,8.0,87,0.00,,,0.00,Wunderground v.1.15,2013-11-13 04:28:00,
2013-11-12 22:30:00,19.3,16.1,30.67,SW,233,1.0,8.0,87,0.00,,,0.00,Wunderground v.1.15,2013-11-13 04:30:00,
2013-11-12 22:36:00,19.1,15.9,30.67,SW,232,1.0,8.0,87,0.00,,,0.00,Wunderground v.1.15,2013-11-13 04:36:00,
2013-11-12 22:38:00,19.1,16.1,30.67,WSW,238,2.0,8.0,88,0.00,,,0.00,Wunderground v.1.15,2013-11-13 04:38:00,
2013-11-12 22:40:00,19.2,16.2,30.67,WSW,248,2.0,8.0,88,0.00,,,0.00,Wunderground v.1.15,2013-11-13 04:40:00,
2013-11-12 22:42:00,19.2,16.2,30.67,WSW,253,3.0,8.0,88,0.00,,,0.00,Wunderground v.1.15,2013-11-13 04:42:00,
2013-11-12 22:44:00,19.3,16.1,30.67,WSW,250,3.0,8.0,87,0.00,,,0.00,Wunderground v.1.15,2013-11-13 04:44:00,
2013-11-12 22:46:00,19.4,16.2,30.67,WSW,246,3.0,8.0,87,0.00,,,0.00,Wunderground v.1.15,2013-11-13 04:46:00,
2013-11-12 22:48:00,19.5,16.3,30.67,SW,235,3.0,8.0,87,0.00,,,0.00,Wunderground v.1.15,2013-11-13 04:48:00,
2013-11-12 22:50:00,19.4,16.2,30.67,SW,224,3.0,3.0,87,0.00,,,0.00,Wunderground v.1.15,2013-11-13 04:50:00,
2013-11-12 22:52:00,19.4,15.9,30.67,SW,219,3.0,8.0,86,0.00,,,0.00,Wunderground v.1.15,2013-11-13 04:52:00,
2013-11-12 22:56:00,19.4,15.9,30.67,SW,233,3.0,8.0,86,0.00,,,0.00,Wunderground v.1.15,2013-11-13 04:56:00,
2013-11-12 22:58:00,19.3,15.8,30.67,WSW,245,2.0,8.0,86,0.00,,,0.00,Wunderground v.1.15,2013-11-13 04:58:00,
2013-11-12 23:00:00,19.3,15.8,30.67,WSW,240,2.0,2.0,86,0.00,,,0.00,Wunderground v.1.15,2013-11-13 05:00:00,
2013-11-12 23:02:00,19.2,15.7,30.67,SW,224,2.0,8.0,86,0.00,,,0.00,Wunderground v.1.15,2013-11-13 05:02:00,
2013-11-12 23:04:00,19.1,15.6,30.67,SW,222,2.0,8.0,86,0.00,,,0.00,Wunderground v.1.15,2013-11-13 05:04:00,
2013-11-12 23:06:00,19.1,15.9,30.67,SW,231,2.0,8.0,87,0.00,,,0.00,Wunderground v.1.15,2013-11-13 05:06:00,
2013-11-12 23:08:00,19.0,15.8,30.66,SW,236,2.0,8.0,87,0.00,,,0.00,Wunderground v.1.15,2013-11-13 05:08:00,
2013-11-12 23:10:00,19.0,15.8,30.66,SW,219,2.0,8.0,87,0.00,,,0.00,Wunderground v.1.15,2013-11-13 05:10:00,
2013-11-12 23:12:00,18.9,15.7,30.66,SW,233,2.0,8.0,87,0.00,,,0.00,Wunderground v.1.15,2013-11-13 05:12:00,
2013-11-12 23:14:00,18.9,15.7,30.66,SW,235,2.0,8.0,87,0.00,,,0.00,Wunderground v.1.15,2013-11-13 05:14:00,
2013-11-12 23:16:00,18.8,15.6,30.66,SW,228,2.0,8.0,87,0.00,,,0.00,Wunderground v.1.15,2013-11-13 05:16:00,
2013-11-12 23:20:00,18.7,15.5,30.66,SW,224,2.0,8.0,87,0.00,,,0.00,Wunderground v.1.15,2013-11-13 05:20:00,
2013-11-12 23:22:00,18.7,15.5,30.66,SW,228,2.0,8.0,87,0.00,,,0.00,Wunderground v.1.15,2013-11-13 05:22:00,
2013-11-12 23:26:00,18.5,15.3,30.66,SW,236,2.0,8.0,87,0.00,,,0.00,Wunderground v.1.15,2013-11-13 05:26:00,
2013-11-12 23:29:00,18.5,15.5,30.66,WSW,248,1.0,8.0,88,0.00,,,0.00,Wunderground v.1.15,2013-11-13 05:29:00,
2013-11-12 23:30:00,18.5,15.5,30.66,SW,235,1.0,8.0,88,0.00,,,0.00,Wunderground v.1.15,2013-11-13 05:30:00,
2013-11-12 23:34:00,18.7,15.7,30.66,SW,222,2.0,8.0,88,0.00,,,0.00,Wunderground v.1.15,2013-11-13 05:34:00,
2013-11-12 23:36:00,18.8,15.8,30.66,SW,224,2.0,8.0,88,0.00,,,0.00,Wunderground v.1.15,2013-11-13 05:36:00,
2013-11-12 23:38:00,18.8,15.8,30.66,WSW,240,2.0,8.0,88,0.00,,,0.00,Wunderground v.1.15,2013-11-13 05:38:00,
2013-11-12 23:42:00,18.8,15.8,30.66,West,263,2.0,3.0,88,0.00,,,0.00,Wunderground v.1.15,2013-11-13 05:42:00,
2013-11-12 23:46:00,18.8,15.8,30.66,SW,222,2.0,8.0,88,0.00,,,0.00,Wunderground v.1.15,2013-11-13 05:46:00,
2013-11-12 23:48:00,18.7,16.0,30.65,SW,217,2.0,8.0,89,0.00,,,0.00,Wunderground v.1.15,2013-11-13 05:48:00,
2013-11-12 23:50:00,18.7,16.0,30.65,WSW,237,2.0,8.0,89,0.00,,,0.00,Wunderground v.1.15,2013-11-13 05:50:00,
2013-11-12 23:52:00,18.7,16.0,30.65,SSW,206,2.0,8.0,89,0.00,,,0.00,Wunderground v.1.15,2013-11-13 05:52:00,
2013-11-12 23:54:00,18.7,16.0,30.65,SW,228,2.0,8.0,89,0.00,,,0.00,Wunderground v.1.15,2013-11-13 05:54:00,
2013-11-12 23:56:00,18.7,16.0,30.65,WSW,252,2.0,8.0,89,0.00,,,0.00,Wunderground v.1.15,2013-11-13 05:56:00,